首页
METAR-TAF:

METAR-TAF

机场 :

图卢兹-布拉尼亚克机场

圖盧茲, 法国

纬度: 43-38N, 经度: 001-22E, 海拔: 152米

当前天气观测

该预报发布于15分钟前的00:00 UTC
风速15节,风向南转南东
温度 22°C
湿度 69%
气压 1015 hPa
能见度10公里或以上
1500米以下无云,无积雨云

METAR: LFBO 250000Z AUTO 15015KT CAVOK 22/16 Q1015 BECMG 25007KT

时间: 02:15 (00:15 UTC)

预报

该预报发布于1小时和15分钟前的23:00 UTC
预报有效从25日的 00点(UTC)到 26日的 06点(UTC)
风速10节,风向东南
能见度10公里或以上
1500米以下无云,无积雨云
成为
从 25日的 00点(UTC)到 25日的 02点(UTC)
风速7节,风向西转西南
成为
从 25日的 02点(UTC)到 25日的 05点(UTC)
风速3节,风向多变
几率 30% :
短暂存在
从 25日的 02点(UTC)到 25日的 06点(UTC)
多云层高于1000英尺
成为
从 25日的 07点(UTC)到 25日的 09点(UTC)
风速12节,风向东南
短暂存在
从 25日的 12点(UTC)到 25日的 15点(UTC)
风速15节,风向东南,有时为25节阵风
短暂存在
从 26日的 00点(UTC)到 26日的 06点(UTC)
风速15节,风向东南,有时为25节阵风

TAF: LFBO 242300Z 2500/2606 13010KT CAVOK BECMG 2500/2502 25007KT BECMG 2502/2505 VRB03KT PROB30 TEMPO 2502/2506 BKN010 BECMG 2507/2509 14012KT TEMPO 2512/2515 13015G25KT TEMPO 2600/2606 13015G25KT

超过4000个机场的气象观测和天气预报(METAR&TAF报告)。

可查询的气象台以黄色和红色小点在地图上表示。

将鼠标移到小点上方,可查看气象台名称。

然后点击查看天气观测和预报。

如需切换地图:点击带黑十字的绿色按钮放大地图;点击带横线的绿色按钮缩小地图;或者点击绿色箭头查看邻近地区的地图。


METAR-TAF: